Northern & Central Napa County

32 Stations

15 Minute Data | America/Los_Angeles
as of 5/4/26 12:03 AM PDT
Station Date Time Temp (°F) RH (%) Dew Pt (°F) Wind Spd (mph) Wind Dir (°) Wind Gust (mph) Latest Rain (In) Daily Rain (In) Daily Max Temp (°F) Daily Min Temp (°F)
Calistoga-North 5/4/26 0000 53.2 84 48.4 - - - 0.00 0.00 83.7 45.5
Stags Leap Dist (Chimney Rock) 5/4/26 0000 50.4   1.8 90   4 47.6   0.7 1.4   1.0 SSE | 151 2.3   2.6 0.00 0.00 68.3   1.7 50.2   2.1
Diamond Mtn (McEachran) 5/4/26 0000 52.4   0.1 82   3 47.0   0.8 - - - - - 64.5   4.3 51.2   0.0
Diamond Mtn (Schramsberg) 5/4/26 0000 50.2   1.0 86   3 46.1   1.9 - - - 0.00 0.00 65.0   3.6 49.8   0.5
Stags Leap Dist (Silverado Vineyards) 5/4/26 0000 51.0   0.3 84   1 46.4   0.0 0.1   2.1 SE | 146 1.7   3.9 0.00 0.00 68.0   2.3 50.6   0.7
Oak Knoll-East (Ranch 53) 5/4/26 0000 51.4   0.2 87   0 47.8   0.2 0.7   0.9 SE | 134 1.9   1.4 0.00 0.00 68.8   2.5 49.1   2.1
Rutherford-North (Mee Ln) 5/4/26 0000 50.1   2.6 85   1 45.7   2.1 0.8   2.4 SW | 228 2.0   3.7 0.00 0.00 69.7   0.9 49.3   0.8
Frisinger Napa-NW 5/4/26 0000 49.4   0.9 89   1 46.2   1.2 1.1   0.2 NNW | 336 2.1   0.5 0.00 0.00 68.2   1.4 49.4   0.1
Napa-North (Ranch 29) 5/4/26 0000 50.8   1.2 90   5 48.1   0.4 0.9   0.7 ENE | 78 2.1   0.4 0.00 0.00 66.6   1.0 50.5   1.4
St. Helena (NVV Office) 5/4/26 0000 54.3   0.1 - - 0.9   0.9 WSW | 252 3.8   0.5 0.00 0.00 69.5   2.3 53.5   0.3
Crossroads Ranch 5/4/26 0000 49.6   2.9 87   4 45.9   1.7 0.9   1.2 SSW | 201 2.3   1.5 0.00 0.00 67.8   0.4 49.4   3.0
Oakville 5/4/26 0000 50.1   2.1 87   3 46.3   1.1 0.6   1.4 SE | 145 2.1   1.7 0.00 0.00 68.3   1.3 49.8   2.3
OV561-East 5/4/26 0000 52.1   0.2 - - - - - - - 69.4   0.2 51.6   0.4
OV518-West 5/4/26 0000 50.8   1.4 - - - - - - - 67.5   0.6 50.7   1.5
Napa-NW (Ranch 54) 5/4/26 0000 49.5   1.7 87   1 46.0   1.9 0.4   0.1 NNW | 333 1.5   0.5 0.00 0.00 69.8   0.3 49.4   1.8
Calistoga (Ranch 78) 5/4/26 0000 53.7   0.6 77   1 46.8   1.1 3.0   0.9 NW | 312 6.8   2.3 0.00 0.00 67.8   6.0 52.8   0.3
Yountville-SE (Ranch 85) 5/4/26 0000 51.1   1.3 88   4 47.8   0.1 0.6   2.0 SW | 216 1.7   2.9 0.00 0.00 69.8   3.3 51.0   1.3
Yountville-South (Ranch 87) 5/4/26 0000 50.4   0.7 90   0 47.5   0.6 0.2   0.2 SSE | 160 1.9   1.3 0.00 0.00 69.3   1.5 50.1   0.9
Rutherford Hill Estate 5/4/26 0000 52.1   0.1 81   4 46.5   1.3 1.9   1.7 NNW | 327 5.0   2.8 0.00 0.00 69.2   1.0 51.3   0.0
Rutherford (STS) 5/4/26 0000 51.2   1.5 91   2 48.6   0.8 1.5   0.8 SW | 216 3.1   1.5 0.00 0.00 69.8   0.8 49.1   3.0
Borreo (Soda Canyon) 5/4/26 0000 46.6   0.8 92   1 44.5   1.1 1.3   0.0 N | 354 3.4   1.3 0.00 0.00 66.2   2.7 46.6   0.8
Oakville-NE (Ranch 88) 5/4/26 0000 49.6   2.9 86   4 45.4   1.5 0.0   1.6 N | 0 0.0   3.7 0.00 0.00 70.4   1.0 49.1   2.9
Soda Canyon 5/4/26 0000 46.2   5.1 90   6 43.6   3.3 0.2   0.9 NNE | 13 1.5   1.5 0.00 0.00 67.7   3.0 45.7   5.6
Silver Oak OV 5/4/26 0000 50.0   2.4 86   2 46.0   1.9 0.9   1.6 SSW | 205 2.4   2.1 0.00 0.00 68.4   1.1 48.8   3.4
Tiara Fria (East St. Helena) 5/4/26 0000 54.8   0.8 75   6 47.0   1.3 3.5   1.0 W | 277 8.0   4.0 0.00 0.00 67.9   0.8 53.3   0.2
To Kalon Remote (TKKE) 5/4/26 0000 49.2   4.2 - - - - - - - 69.8   0.6 48.9   3.9
To Kalon 5/4/26 0000 51.2   1.3 85   0 47.0   1.5 0.6   1.6 S | 171 2.0   3.1 0.00 0.00 68.9   1.0 50.9   1.2
To Kalon Remote (TKN5) 5/4/26 0000 51.9   1.2 - - - - - - - 69.3   1.7 51.0   1.4
St. Helena-North 5/4/26 0000 54.4   0.3 71   3 45.3   1.6 2.8   2.1 NW | 321 7.7   5.3 0.00 0.00 67.9   3.2 53.3   0.4
Twomey Calistoga 5/4/26 0000 51.2   3.0 86   5 47.1   1.3 0.7   1.5 SW | 221 2.0   2.6 0.00 0.00 66.7   5.2 51.2   1.4
Wappo Hill Floor 5/4/26 0000 51.5   0.4 84   0 46.8   0.3 1.1   0.1 WSW | 254 2.8   0.1 0.00 0.00 69.2   1.9 51.5   0.4
Yountville (Ranch 67) 5/4/26 0000 49.6   1.9 86   5 45.8   0.3 0.8   0.3 ENE | 67 2.0   0.5 0.00 0.00 68.0   1.6 49.6   1.7
Max     54.8 92 48.6 3.5 - 8.0 0.00 0.00 83.7 53.5
Avg     51.0 85 46.6 1.1 - 2.9 0.00 - - -
Min     46.2 71 43.6 0.0 - 0.0 0.00 0.00 64.5 45.5